createdAt,value
2023-04-29T00:01:28.420Z,100961.63
2023-04-29T00:03:55.015Z,100958.88
2023-04-29T00:06:21.609Z,100960.84
2023-04-29T00:08:48.051Z,100960.84
2023-04-29T00:11:14.353Z,100965.13
2023-04-29T00:13:40.784Z,100962.06
2023-04-29T00:16:07.225Z,100959.97
2023-04-29T00:18:33.518Z,100959.19
2023-04-29T00:20:59.869Z,100960.72
2023-04-29T00:23:26.237Z,100956.16
2023-04-29T00:25:52.585Z,100955.38
2023-04-29T00:28:19.010Z,100952.66
2023-04-29T00:30:45.321Z,100946.75
2023-04-29T00:33:11.783Z,100947.50
2023-04-29T00:35:38.116Z,100946.31
2023-04-29T00:38:04.482Z,100947.50
2023-04-29T00:40:30.766Z,100948.84
2023-04-29T00:42:57.071Z,100942.94
2023-04-29T00:45:23.415Z,100941.44
2023-04-29T00:47:49.901Z,100932.34
2023-04-29T00:50:16.279Z,100935.84
2023-04-29T00:52:42.636Z,100933.53
2023-04-29T00:55:09.406Z,100930.81
2023-04-29T00:57:35.823Z,100938.69
2023-04-29T01:00:02.141Z,100941.09
2023-04-29T01:02:28.724Z,100937.03
2023-04-29T01:04:55.352Z,100930.94
2023-04-29T01:07:21.682Z,100933.53
2023-04-29T01:09:47.985Z,100934.44
2023-04-29T01:12:14.351Z,100936.72
2023-04-29T01:14:40.653Z,100937.72
2023-04-29T01:17:07.013Z,100934.44
2023-04-29T01:19:33.360Z,100937.16
2023-04-29T01:21:59.673Z,100930.50
2023-04-29T01:24:25.955Z,100934.75
2023-04-29T01:26:52.282Z,100938.69
2023-04-29T01:29:18.626Z,100929.75
2023-04-29T01:31:45.002Z,100937.47
2023-04-29T01:34:11.348Z,100932.78
2023-04-29T01:36:37.662Z,100938.69
2023-04-29T01:39:04.036Z,100934.44
2023-04-29T01:41:30.372Z,100932.00
2023-04-29T01:43:56.737Z,100933.97
2023-04-29T01:46:23.156Z,100927.91
2023-04-29T01:48:49.534Z,100935.50
2023-04-29T01:51:15.853Z,100930.50
2023-04-29T01:53:42.146Z,100930.50
2023-04-29T01:56:08.480Z,100931.25
2023-04-29T01:58:34.780Z,100931.38
2023-04-29T02:01:01.195Z,100930.63
2023-04-29T02:03:27.666Z,100923.31
2023-04-29T02:05:54.008Z,100923.19
2023-04-29T02:08:20.335Z,100922.44
2023-04-29T02:10:46.718Z,100929.41
2023-04-29T02:13:13.053Z,100927.28
2023-04-29T02:15:39.365Z,100929.25
2023-04-29T02:18:05.747Z,100929.66
2023-04-29T02:20:32.096Z,100935.00
2023-04-29T02:22:58.492Z,100931.84
2023-04-29T02:25:24.849Z,100940.03
2023-04-29T02:27:51.178Z,100944.72
2023-04-29T02:30:17.470Z,100942.13
2023-04-29T02:32:43.809Z,100943.53
2023-04-29T02:35:10.122Z,100943.41
2023-04-29T02:37:36.478Z,100947.31
2023-04-29T02:40:02.807Z,100939.91
2023-04-29T02:42:29.100Z,100942.00
2023-04-29T02:44:55.447Z,100936.53
2023-04-29T02:47:21.767Z,100939.25
2023-04-29T02:49:48.082Z,100945.78
2023-04-29T02:52:14.419Z,100938.97
2023-04-29T02:54:40.791Z,100940.78
2023-04-29T02:57:07.169Z,100950.19
2023-04-29T02:59:33.480Z,100942.31
2023-04-29T03:01:59.817Z,100947.88
2023-04-29T03:04:26.327Z,100948.22
2023-04-29T03:06:52.730Z,100937.84
2023-04-29T03:09:19.076Z,100946.69
2023-04-29T03:11:45.430Z,100942.00
2023-04-29T03:14:11.735Z,100943.31
2023-04-29T03:16:38.088Z,100948.34
2023-04-29T03:19:04.515Z,100949.53
2023-04-29T03:21:30.890Z,100956.53
2023-04-29T03:23:57.231Z,100949.13
2023-04-29T03:26:23.646Z,100960.81
2023-04-29T03:28:50.058Z,100955.22
2023-04-29T03:31:16.450Z,100957.94
2023-04-29T03:33:42.850Z,100961.22
2023-04-29T03:36:09.191Z,100969.00
2023-04-29T03:38:35.493Z,100972.91
2023-04-29T03:41:01.839Z,100972.91
2023-04-29T03:43:28.197Z,100968.34
2023-04-29T03:45:54.645Z,100965.94
2023-04-29T03:48:21.157Z,100968.66
2023-04-29T03:50:47.773Z,100962.00
2023-04-29T03:53:14.090Z,100969.13
2023-04-29T03:55:40.462Z,100976.41
2023-04-29T03:58:06.763Z,100969.84
2023-04-29T04:00:33.124Z,100979.44
2023-04-29T04:03:00.064Z,100981.88
2023-04-29T04:05:27.206Z,100980.03
2023-04-29T04:07:53.509Z,100979.03
2023-04-29T04:10:19.814Z,100981.88
2023-04-29T04:12:46.180Z,100984.41
2023-04-29T04:15:12.560Z,100986.34
2023-04-29T04:17:38.960Z,100985.50
2023-04-29T04:20:05.307Z,100981.22
2023-04-29T04:22:31.598Z,100985.03
2023-04-29T04:24:57.919Z,100990.06
2023-04-29T04:27:24.292Z,100997.03
2023-04-29T04:29:50.681Z,100998.25
2023-04-29T04:32:17.132Z,100999.59
2023-04-29T04:34:43.457Z,101002.63
2023-04-29T04:37:09.773Z,100997.63
2023-04-29T04:39:36.109Z,100996.28
2023-04-29T04:42:02.532Z,101002.19
2023-04-29T04:44:28.884Z,101000.22
2023-04-29T04:46:55.198Z,101009.31
2023-04-29T04:49:21.503Z,101007.00
2023-04-29T04:51:47.857Z,101014.44
2023-04-29T04:54:14.296Z,101020.66
2023-04-29T04:56:40.612Z,101019.88
2023-04-29T04:59:06.965Z,101022.19
2023-04-29T05:01:33.367Z,101028.84
2023-04-29T05:03:59.875Z,101029.91
2023-04-29T05:06:26.237Z,101031.47
2023-04-29T05:08:52.535Z,101037.69
2023-04-29T05:11:18.854Z,101036.16
2023-04-29T05:13:45.288Z,101048.72
2023-04-29T05:16:11.611Z,101046.75
2023-04-29T05:18:37.971Z,101052.22
2023-04-29T05:21:04.324Z,101054.50
2023-04-29T05:23:30.622Z,101055.84
2023-04-29T05:25:56.987Z,101060.06
2023-04-29T05:28:23.340Z,101065.22
2023-04-29T05:30:49.669Z,101071.34
2023-04-29T05:33:16.032Z,101071.34
2023-04-29T05:35:42.419Z,101080.16
2023-04-29T05:38:08.736Z,101081.59
2023-04-29T05:40:35.109Z,101085.41
2023-04-29T05:43:01.462Z,101094.72
2023-04-29T05:45:27.777Z,101095.44
2023-04-29T05:47:54.183Z,101091.63
2023-04-29T05:50:20.589Z,101097.09
2023-04-29T05:52:46.945Z,101099.41
2023-04-29T05:55:13.268Z,101101.03
2023-04-29T05:57:39.652Z,101108.78
2023-04-29T06:00:06.025Z,101113.81
2023-04-29T06:02:32.515Z,101102.13
2023-04-29T06:04:59.182Z,101105.28
2023-04-29T06:07:25.640Z,101110.75
2023-04-29T06:09:52.223Z,101115.78
2023-04-29T06:12:18.717Z,101119.28
2023-04-29T06:14:45.024Z,101117.28
2023-04-29T06:17:11.392Z,101125.28
2023-04-29T06:19:37.707Z,101118.94
2023-04-29T06:22:04.048Z,101120.38
2023-04-29T06:24:30.457Z,101122.13
2023-04-29T06:26:56.766Z,101120.91
2023-04-29T06:29:23.299Z,101125.16
2023-04-29T06:31:49.724Z,101130.63
2023-04-29T06:34:17.189Z,101130.75
2023-04-29T06:36:43.561Z,101131.53
2023-04-29T06:39:09.919Z,101129.97
2023-04-29T06:41:36.252Z,101130.75
2023-04-29T06:44:02.602Z,101130.75
2023-04-29T06:46:29.182Z,101136.22
2023-04-29T06:48:55.624Z,101130.09
2023-04-29T06:51:21.972Z,101134.69
2023-04-29T06:53:48.289Z,101133.91
2023-04-29T06:56:16.683Z,101129.88
2023-04-29T06:58:43.401Z,101145.59
2023-04-29T07:01:09.895Z,101140.78
2023-04-29T07:03:36.382Z,101145.81
2023-04-29T07:06:02.895Z,101145.81
2023-04-29T07:08:29.194Z,101151.72
2023-04-29T07:10:55.495Z,101161.44
2023-04-29T07:13:21.951Z,101150.94
2023-04-29T07:15:48.262Z,101162.63
2023-04-29T07:18:14.587Z,101162.31
2023-04-29T07:20:40.917Z,101159.13
2023-04-29T07:23:07.225Z,101162.63
2023-04-29T07:25:33.538Z,101170.06
2023-04-29T07:27:59.900Z,101171.16
2023-04-29T07:30:26.326Z,101164.94
2023-04-29T07:32:52.705Z,101166.13
2023-04-29T07:35:19.416Z,101170.94
2023-04-29T07:37:45.730Z,101177.16
2023-04-29T07:40:12.111Z,101173.56
2023-04-29T07:42:38.423Z,101175.63
2023-04-29T07:45:04.787Z,101176.72
2023-04-29T07:47:31.102Z,101177.81
2023-04-29T07:49:57.460Z,101174.00
2023-04-29T07:52:23.804Z,101185.34
2023-04-29T07:54:50.243Z,101183.81
2023-04-29T07:57:16.747Z,101180.66
2023-04-29T07:59:43.146Z,101177.47
2023-04-29T08:02:09.456Z,101185.66
2023-04-29T08:04:35.969Z,101176.28
2023-04-29T08:07:02.579Z,101180.13
2023-04-29T08:09:28.939Z,101186.53
2023-04-29T08:11:55.406Z,101189.72
2023-04-29T08:14:21.723Z,101190.81
2023-04-29T08:16:48.029Z,101188.97
2023-04-29T08:19:14.384Z,101182.50
2023-04-29T08:21:40.693Z,101186.13
2023-04-29T08:24:06.978Z,101184.81
2023-04-29T08:26:33.307Z,101189.16
2023-04-29T08:28:59.599Z,101187.53
2023-04-29T08:31:26.000Z,101185.25
2023-04-29T08:33:52.380Z,101189.63
2023-04-29T08:36:18.719Z,101186.13
2023-04-29T08:38:45.183Z,101193.53
2023-04-29T08:41:11.497Z,101197.03
2023-04-29T08:43:37.860Z,101195.06
2023-04-29T08:46:04.212Z,101194.63
2023-04-29T08:48:30.703Z,101194.75
2023-04-29T08:50:57.145Z,101196.28
2023-04-29T08:53:23.486Z,101191.56
2023-04-29T08:55:49.841Z,101202.69
2023-04-29T08:58:16.229Z,101198.13
2023-04-29T09:00:42.629Z,101199.00
2023-04-29T09:03:09.104Z,101199.66
2023-04-29T09:05:35.443Z,101205.00
2023-04-29T09:08:01.801Z,101200.84
2023-04-29T09:10:28.114Z,101209.03
2023-04-29T09:12:54.465Z,101205.13
2023-04-29T09:15:20.787Z,101207.28
2023-04-29T09:17:47.187Z,101211.47
2023-04-29T09:20:13.616Z,101221.28
2023-04-29T09:22:39.929Z,101220.06
2023-04-29T09:25:06.303Z,101216.91
2023-04-29T09:27:32.674Z,101223.16
2023-04-29T09:29:59.024Z,101218.88
2023-04-29T09:32:25.379Z,101219.53
2023-04-29T09:34:52.104Z,101226.19
2023-04-29T09:37:18.702Z,101222.81
2023-04-29T09:39:45.017Z,101230.13
2023-04-29T09:42:11.359Z,101221.63
2023-04-29T09:44:37.702Z,101228.59
2023-04-29T09:47:04.059Z,101224.34
2023-04-29T09:49:30.368Z,101224.44
2023-04-29T09:51:56.668Z,101221.16
2023-04-29T09:54:22.972Z,101230.44
2023-04-29T09:56:49.312Z,101231.00
2023-04-29T09:59:15.650Z,101234.91
2023-04-29T10:01:42.041Z,101236.34
2023-04-29T10:04:08.455Z,101234.19
2023-04-29T10:06:34.882Z,101239.06
2023-04-29T10:09:01.202Z,101229.81
2023-04-29T10:11:27.509Z,101232.41
2023-04-29T10:13:53.878Z,101226.63
2023-04-29T10:16:20.304Z,101229.69
2023-04-29T10:18:46.679Z,101222.81
2023-04-29T10:21:12.996Z,101225.34
2023-04-29T10:23:39.301Z,101227.72
2023-04-29T10:26:05.647Z,101235.47
2023-04-29T10:28:32.005Z,101231.97
2023-04-29T10:30:58.414Z,101240.63
2023-04-29T10:33:24.745Z,101238.66
2023-04-29T10:35:51.060Z,101228.03
2023-04-29T10:38:18.925Z,101233.09
2023-04-29T10:40:45.437Z,101231.22
2023-04-29T10:43:11.739Z,101230.78
2023-04-29T10:45:38.047Z,101240.06
2023-04-29T10:48:04.566Z,101240.63
2023-04-29T10:50:31.011Z,101239.41
2023-04-29T10:52:57.326Z,101245.31
2023-04-29T10:55:23.717Z,101238.19
2023-04-29T10:57:50.058Z,101242.47
2023-04-29T11:00:16.415Z,101238.31
2023-04-29T11:02:42.836Z,101243.00
2023-04-29T11:05:09.375Z,101238.84
2023-04-29T11:07:35.817Z,101246.16
2023-04-29T11:10:02.204Z,101237.56
2023-04-29T11:12:28.523Z,101241.59
2023-04-29T11:14:55.146Z,101245.19
2023-04-29T11:17:21.770Z,101248.13
2023-04-29T11:19:48.202Z,101245.97
2023-04-29T11:22:14.577Z,101250.22
2023-04-29T11:24:40.957Z,101243.56
2023-04-29T11:27:07.330Z,101250.75
2023-04-29T11:29:33.681Z,101246.16
2023-04-29T11:32:00.202Z,101251.63
2023-04-29T11:34:26.697Z,101261.34
2023-04-29T11:36:52.996Z,101248.69
2023-04-29T11:39:19.352Z,101245.28
2023-04-29T11:41:45.705Z,101249.25
2023-04-29T11:44:12.166Z,101251.53
2023-04-29T11:46:38.743Z,101243.66
2023-04-29T11:49:05.232Z,101249.44
2023-04-29T11:51:31.630Z,101251.88
2023-04-29T11:53:57.969Z,101245.75
2023-04-29T11:56:24.322Z,101238.22
2023-04-29T11:58:50.649Z,101236.25
2023-04-29T12:01:17.007Z,101231.88
2023-04-29T12:03:43.457Z,101234.72
2023-04-29T12:06:09.927Z,101238.22
2023-04-29T12:08:36.274Z,101237.00
2023-04-29T12:11:02.640Z,101234.72
2023-04-29T12:13:28.973Z,101235.13
2023-04-29T12:15:55.307Z,101240.16
2023-04-29T12:18:21.648Z,101238.97
2023-04-29T12:20:47.966Z,101234.81
2023-04-29T12:23:14.304Z,101233.50
2023-04-29T12:25:40.658Z,101240.28
2023-04-29T12:28:08.448Z,101239.28
2023-04-29T12:30:34.879Z,101240.16
2023-04-29T12:33:01.341Z,101245.28
2023-04-29T12:35:27.682Z,101239.41
2023-04-29T12:37:54.031Z,101239.41
2023-04-29T12:40:20.758Z,101241.38
2023-04-29T12:42:47.379Z,101237.09
2023-04-29T12:45:13.690Z,101241.16
2023-04-29T12:47:40.036Z,101235.91
2023-04-29T12:50:06.402Z,101242.13
2023-04-29T12:52:33.637Z,101237.75
2023-04-29T12:55:00.976Z,101244.09
2023-04-29T12:57:27.334Z,101235.38
2023-04-29T12:59:53.752Z,101236.44
2023-04-29T13:02:20.192Z,101241.72
2023-04-29T13:04:46.650Z,101241.72
2023-04-29T13:07:13.094Z,101240.16
2023-04-29T13:09:39.523Z,101240.94
2023-04-29T13:12:05.862Z,101234.72
2023-04-29T13:14:32.162Z,101233.06
2023-04-29T13:16:58.513Z,101240.16
2023-04-29T13:19:43.507Z,101237.53
2023-04-29T13:22:11.227Z,101234.03
2023-04-29T13:24:37.598Z,101235.25
2023-04-29T13:27:03.933Z,101233.28
2023-04-29T13:29:30.422Z,101233.38
2023-04-29T13:31:56.864Z,101228.25
2023-04-29T13:34:23.259Z,101225.84
2023-04-29T13:36:49.593Z,101221.03
2023-04-29T13:39:15.948Z,101226.94
2023-04-29T13:41:45.501Z,101224.22
2023-04-29T13:44:23.573Z,101220.13
2023-04-29T13:46:55.444Z,101216.31
2023-04-29T13:49:53.702Z,101220.72
2023-04-29T13:52:47.491Z,101219.94
2023-04-29T13:59:53.326Z,101218.97
2023-04-29T14:04:49.331Z,101220.47
2023-04-29T14:07:15.764Z,101218.22
2023-04-29T14:09:42.088Z,101219.94
2023-04-29T14:12:08.392Z,101219.28
2023-04-29T14:14:34.717Z,101219.50
2023-04-29T14:17:01.121Z,101220.94
2023-04-29T14:19:27.472Z,101218.88
2023-04-29T14:21:53.790Z,101214.28
2023-04-29T14:24:20.185Z,101210.22
2023-04-29T14:26:46.500Z,101215.38
2023-04-29T14:29:12.858Z,101209.56
2023-04-29T14:31:39.262Z,101203.56
2023-04-29T14:34:05.596Z,101197.53
2023-04-29T14:36:31.945Z,101204.97
2023-04-29T14:38:58.244Z,101199.81
2023-04-29T14:41:24.588Z,101204.97
2023-04-29T14:43:50.956Z,101212.72
2023-04-29T14:46:17.378Z,101201.47
2023-04-29T14:48:43.746Z,101207.81
2023-04-29T14:51:10.073Z,101202.25
2023-04-29T14:53:36.447Z,101194.28
2023-04-29T14:56:02.811Z,101201.59
2023-04-29T14:58:29.139Z,101211.09
2023-04-29T15:00:55.512Z,101207.38
2023-04-29T15:03:22.822Z,101206.06
2023-04-29T15:05:49.650Z,101207.06
2023-04-29T15:08:16.002Z,101213.16
2023-04-29T15:10:42.363Z,101213.47
2023-04-29T15:13:08.758Z,101217.00
2023-04-29T15:15:35.083Z,101201.72
2023-04-29T15:18:01.440Z,101209.34
2023-04-29T15:20:27.930Z,101209.97
2023-04-29T15:22:54.277Z,101206.81
2023-04-29T15:25:21.220Z,101209.66
2023-04-29T15:27:48.366Z,101212.81
2023-04-29T15:30:14.720Z,101200.38
2023-04-29T15:32:41.058Z,101201.06
2023-04-29T15:35:07.435Z,101201.47
2023-04-29T15:37:33.827Z,101202.91
2023-04-29T15:40:00.181Z,101198.63
2023-04-29T15:42:26.581Z,101202.34
2023-04-29T15:44:52.938Z,101214.03
2023-04-29T15:47:19.355Z,101202.47
2023-04-29T15:49:45.667Z,101202.03
2023-04-29T15:52:11.985Z,101205.41
2023-04-29T15:54:38.367Z,101217.88
2023-04-29T15:57:04.728Z,101215.13
2023-04-29T15:59:31.034Z,101208.88
2023-04-29T16:01:57.387Z,101215.59
2023-04-29T16:04:23.677Z,101210.13
2023-04-29T16:06:50.041Z,101211.19
2023-04-29T16:09:16.394Z,101204.31
2023-04-29T16:11:42.726Z,101209.88
2023-04-29T16:14:09.063Z,101202.78
2023-04-29T16:16:35.395Z,101205.72
2023-04-29T16:19:01.730Z,101202.97
2023-04-29T16:21:28.094Z,101205.16
2023-04-29T16:23:54.419Z,101205.84
2023-04-29T16:26:20.778Z,101200.69
2023-04-29T16:28:47.084Z,101199.31
2023-04-29T16:31:13.607Z,101197.06
2023-04-29T16:33:40.001Z,101207.38
2023-04-29T16:36:06.379Z,101193.28
2023-04-29T16:38:32.752Z,101202.88
2023-04-29T16:40:59.260Z,101201.03
2023-04-29T16:43:25.611Z,101203.44
2023-04-29T16:45:52.010Z,101211.97
2023-04-29T16:48:18.387Z,101206.25
2023-04-29T16:50:44.711Z,101199.81
2023-04-29T16:53:11.030Z,101209.97
2023-04-29T16:55:37.337Z,101204.84
2023-04-29T16:58:03.716Z,101212.50
2023-04-29T17:00:30.097Z,101213.59
2023-04-29T17:02:56.450Z,101205.63
2023-04-29T17:05:22.899Z,101209.78
2023-04-29T17:07:49.268Z,101208.34
2023-04-29T17:10:15.590Z,101206.81
2023-04-29T17:12:41.894Z,101205.16
2023-04-29T17:15:08.185Z,101209.13
2023-04-29T17:17:34.537Z,101201.03
2023-04-29T17:20:00.894Z,101210.97
2023-04-29T17:22:27.257Z,101211.53
2023-04-29T17:24:53.648Z,101214.56
2023-04-29T17:27:19.980Z,101215.78
2023-04-29T17:29:46.347Z,101223.75
2023-04-29T17:32:12.821Z,101224.41
2023-04-29T17:34:39.188Z,101220.91
2023-04-29T17:37:05.568Z,101227.38
2023-04-29T17:39:31.902Z,101233.16
2023-04-29T17:41:58.277Z,101228.22
2023-04-29T17:44:24.701Z,101231.72
2023-04-29T17:46:51.017Z,101230.88
2023-04-29T17:49:17.335Z,101238.28
2023-04-29T17:51:43.714Z,101232.09
2023-04-29T17:54:10.029Z,101234.81
2023-04-29T17:56:36.326Z,101237.56
2023-04-29T17:59:02.666Z,101245.38
2023-04-29T18:01:29.557Z,101249.22
2023-04-29T18:03:56.018Z,101241.22
2023-04-29T18:06:22.423Z,101234.91
2023-04-29T18:08:48.774Z,101243.41
2023-04-29T18:11:15.105Z,101240.28
2023-04-29T18:13:41.515Z,101245.38
2023-04-29T18:16:07.915Z,101254.16
2023-04-29T18:18:34.255Z,101257.63
2023-04-29T18:21:00.612Z,101254.16
2023-04-29T18:23:26.925Z,101258.84
2023-04-29T18:25:53.235Z,101264.72
2023-04-29T18:28:25.313Z,101269.75
2023-04-29T18:30:52.066Z,101270.31
2023-04-29T18:33:18.456Z,101277.00
2023-04-29T18:35:44.834Z,101273.59
2023-04-29T18:38:11.173Z,101274.03
2023-04-29T18:40:37.543Z,101283.31
2023-04-29T18:43:03.893Z,101288.44
2023-04-29T18:45:30.218Z,101287.25
2023-04-29T18:47:56.665Z,101288.13
2023-04-29T18:50:22.982Z,101281.78
2023-04-29T18:52:49.447Z,101288.88
2023-04-29T18:55:15.849Z,101286.91
2023-04-29T18:57:42.179Z,101282.22
2023-04-29T19:00:08.528Z,101286.59
2023-04-29T19:02:34.874Z,101291.59
2023-04-29T19:05:01.302Z,101289.31
2023-04-29T19:07:27.741Z,101287.78
2023-04-29T19:09:54.229Z,101290.22
2023-04-29T19:12:20.728Z,101292.38
2023-04-29T19:14:47.032Z,101292.72
2023-04-29T19:17:13.405Z,101298.06
2023-04-29T19:19:39.729Z,101294.66
2023-04-29T19:22:06.080Z,101302.44
2023-04-29T19:24:32.411Z,101298.81
2023-04-29T19:26:58.765Z,101305.47
2023-04-29T19:29:25.075Z,101315.22
2023-04-29T19:31:51.612Z,101315.31
2023-04-29T19:34:18.142Z,101317.63
2023-04-29T19:36:44.511Z,101320.66
2023-04-29T19:39:11.008Z,101316.41
2023-04-29T19:41:37.518Z,101326.25
2023-04-29T19:44:03.851Z,101337.16
2023-04-29T19:46:30.294Z,101343.81
2023-04-29T19:48:56.637Z,101341.19
2023-04-29T19:51:23.020Z,101345.91
2023-04-29T19:53:49.377Z,101346.53
2023-04-29T19:56:15.786Z,101348.19
2023-04-29T19:58:42.150Z,101352.09
2023-04-29T20:01:08.541Z,101354.84
2023-04-29T20:03:34.950Z,101357.47
2023-04-29T20:06:01.287Z,101359.56
2023-04-29T20:08:27.673Z,101358.03
2023-04-29T20:10:54.051Z,101359.97
2023-04-29T20:13:20.409Z,101359.97
2023-04-29T20:15:46.765Z,101360.41
2023-04-29T20:18:13.128Z,101375.19
2023-04-29T20:20:39.554Z,101377.13
2023-04-29T20:23:05.923Z,101371.47
2023-04-29T20:25:32.259Z,101373.22
2023-04-29T20:27:58.638Z,101375.41
2023-04-29T20:30:25.057Z,101373.84
2023-04-29T20:32:51.559Z,101374.06
2023-04-29T20:35:17.972Z,101374.50
2023-04-29T20:37:44.280Z,101384.97
2023-04-29T20:40:10.635Z,101378.78
2023-04-29T20:42:36.959Z,101395.69
2023-04-29T20:45:03.269Z,101391.09
2023-04-29T20:47:29.643Z,101397.53
2023-04-29T20:49:56.100Z,101386.41
2023-04-29T20:52:22.530Z,101391.97
2023-04-29T20:54:48.890Z,101389.34
2023-04-29T20:57:15.254Z,101390.53
2023-04-29T20:59:41.650Z,101387.38
2023-04-29T21:02:08.044Z,101392.19
2023-04-29T21:04:34.398Z,101383.47
2023-04-29T21:07:00.771Z,101379.31
2023-04-29T21:09:27.108Z,101383.66
2023-04-29T21:11:53.447Z,101369.16
2023-04-29T21:14:19.831Z,101376.47
2023-04-29T21:16:46.157Z,101375.69
2023-04-29T21:19:12.559Z,101377.34
2023-04-29T21:21:38.883Z,101375.38
2023-04-29T21:24:05.237Z,101380.38
2023-04-29T21:26:31.666Z,101385.44
2023-04-29T21:28:58.009Z,101378.22
2023-04-29T21:31:24.432Z,101380.16
2023-04-29T21:33:50.772Z,101376.34
2023-04-29T21:36:17.086Z,101376.00
2023-04-29T21:38:43.456Z,101382.56
2023-04-29T21:41:09.817Z,101391.88
2023-04-29T21:43:36.273Z,101386.50
2023-04-29T21:46:02.598Z,101376.34
2023-04-29T21:48:28.907Z,101379.09
2023-04-29T21:50:55.270Z,101381.38
2023-04-29T21:53:21.605Z,101374.16
2023-04-29T21:55:47.938Z,101381.91
2023-04-29T21:58:14.341Z,101369.66
2023-04-29T22:00:40.752Z,101377.63
2023-04-29T22:03:07.199Z,101371.00
2023-04-29T22:05:33.609Z,101379.91
2023-04-29T22:07:59.923Z,101379.19
2023-04-29T22:10:26.278Z,101378.84
2023-04-29T22:12:52.593Z,101380.78
2023-04-29T22:15:27.985Z,101377.75
2023-04-29T22:17:54.898Z,101384.97
2023-04-29T22:20:21.274Z,101382.66
2023-04-29T22:22:47.668Z,101379.50
2023-04-29T22:25:14.031Z,101379.91
2023-04-29T22:27:40.508Z,101374.16
2023-04-29T22:30:06.874Z,101379.19
2023-04-29T22:32:33.227Z,101377.75
2023-04-29T22:35:00.664Z,101382.34
2023-04-29T22:37:27.341Z,101376.88
2023-04-29T22:39:53.870Z,101376.09
2023-04-29T22:42:20.370Z,101372.19
2023-04-29T22:44:46.711Z,101371.09
2023-04-29T22:47:13.131Z,101367.59
2023-04-29T22:49:39.489Z,101374.56
2023-04-29T22:52:05.845Z,101360.81
2023-04-29T22:54:32.199Z,101360.59
2023-04-29T22:56:58.512Z,101364.50
2023-04-29T22:59:24.894Z,101361.38
2023-04-29T23:01:51.312Z,101361.38
2023-04-29T23:04:17.778Z,101356.69
2023-04-29T23:06:44.282Z,101360.69
2023-04-29T23:09:10.942Z,101356.00
2023-04-29T23:11:37.279Z,101360.28
2023-04-29T23:14:03.600Z,101359.06
2023-04-29T23:16:30.053Z,101361.88
2023-04-29T23:18:56.477Z,101357.44
2023-04-29T23:21:22.836Z,101347.72
2023-04-29T23:23:49.212Z,101350.53
2023-04-29T23:26:15.870Z,101336.47
2023-04-29T23:28:42.260Z,101342.03
2023-04-29T23:31:08.637Z,101344.31
2023-04-29T23:33:34.996Z,101342.34
2023-04-29T23:36:01.360Z,101334.94
2023-04-29T23:38:27.829Z,101339.06
2023-04-29T23:40:54.151Z,101336.59
2023-04-29T23:43:20.464Z,101338.97
2023-04-29T23:45:46.845Z,101338.09
2023-04-29T23:48:13.248Z,101339.22
2023-04-29T23:50:39.638Z,101334.28
2023-04-29T23:53:05.955Z,101336.03
2023-04-29T23:55:32.309Z,101340.03
2023-04-29T23:57:58.637Z,101332.31
